sensor_id;sensor_type;location;lat;lon;timestamp;P1;durP1;ratioP1;P2;durP2;ratioP2
57055;SDS011;42945;51.718;5.324;2024-01-06T00:00:03;34.20;;;18.38;;
57055;SDS011;42945;51.718;5.324;2024-01-06T00:05:52;32.55;;;17.13;;
57055;SDS011;42945;51.718;5.324;2024-01-06T00:11:41;34.97;;;18.20;;
57055;SDS011;42945;51.718;5.324;2024-01-06T00:17:29;32.78;;;17.27;;
57055;SDS011;42945;51.718;5.324;2024-01-06T00:23:18;30.35;;;17.52;;
57055;SDS011;42945;51.718;5.324;2024-01-06T00:29:05;31.90;;;17.73;;
57055;SDS011;42945;51.718;5.324;2024-01-06T00:34:53;29.10;;;16.92;;
57055;SDS011;42945;51.718;5.324;2024-01-06T00:40:41;26.00;;;14.80;;
57055;SDS011;42945;51.718;5.324;2024-01-06T00:46:30;20.55;;;12.05;;
57055;SDS011;42945;51.718;5.324;2024-01-06T00:52:18;22.60;;;11.75;;
57055;SDS011;42945;51.718;5.324;2024-01-06T01:01:54;23.13;;;13.02;;
57055;SDS011;42945;51.718;5.324;2024-01-06T01:13:54;21.20;;;11.27;;
57055;SDS011;42945;51.718;5.324;2024-01-06T01:19:41;19.08;;;11.60;;
57055;SDS011;42945;51.718;5.324;2024-01-06T01:25:29;21.02;;;12.18;;
57055;SDS011;42945;51.718;5.324;2024-01-06T01:31:17;20.85;;;11.02;;
57055;SDS011;42945;51.718;5.324;2024-01-06T01:37:05;20.65;;;11.90;;
57055;SDS011;42945;51.718;5.324;2024-01-06T01:42:53;20.05;;;11.43;;
57055;SDS011;42945;51.718;5.324;2024-01-06T01:48:41;18.92;;;11.30;;
57055;SDS011;42945;51.718;5.324;2024-01-06T01:54:29;18.75;;;11.18;;
57055;SDS011;42945;51.718;5.324;2024-01-06T02:04:12;13.77;;;8.80;;
57055;SDS011;42945;51.718;5.324;2024-01-06T02:10:00;15.63;;;9.38;;
57055;SDS011;42945;51.718;5.324;2024-01-06T02:15:48;12.57;;;7.32;;
57055;SDS011;42945;51.718;5.324;2024-01-06T02:21:38;14.25;;;7.45;;
57055;SDS011;42945;51.718;5.324;2024-01-06T02:27:28;9.18;;;5.63;;
57055;SDS011;42945;51.718;5.324;2024-01-06T02:33:17;11.27;;;6.35;;
57055;SDS011;42945;51.718;5.324;2024-01-06T02:39:06;7.93;;;4.65;;
57055;SDS011;42945;51.718;5.324;2024-01-06T02:44:55;8.35;;;5.07;;
57055;SDS011;42945;51.718;5.324;2024-01-06T02:50:43;6.55;;;4.95;;
57055;SDS011;42945;51.718;5.324;2024-01-06T02:56:31;6.93;;;4.88;;
57055;SDS011;42945;51.718;5.324;2024-01-06T03:06:12;4.70;;;3.45;;
57055;SDS011;42945;51.718;5.324;2024-01-06T03:12:00;6.95;;;4.85;;
57055;SDS011;42945;51.718;5.324;2024-01-06T03:17:48;7.00;;;5.00;;
57055;SDS011;42945;51.718;5.324;2024-01-06T03:23:35;8.85;;;6.18;;
57055;SDS011;42945;51.718;5.324;2024-01-06T03:29:23;18.60;;;10.10;;
57055;SDS011;42945;51.718;5.324;2024-01-06T03:35:11;16.17;;;10.05;;
57055;SDS011;42945;51.718;5.324;2024-01-06T03:40:59;14.43;;;8.38;;
57055;SDS011;42945;51.718;5.324;2024-01-06T03:46:47;15.77;;;9.45;;
57055;SDS011;42945;51.718;5.324;2024-01-06T03:52:36;14.13;;;8.48;;
57055;SDS011;42945;51.718;5.324;2024-01-06T03:58:24;12.55;;;7.72;;
57055;SDS011;42945;51.718;5.324;2024-01-06T04:04:13;12.10;;;8.13;;
57055;SDS011;42945;51.718;5.324;2024-01-06T04:10:01;13.55;;;8.07;;
57055;SDS011;42945;51.718;5.324;2024-01-06T04:15:49;11.85;;;6.63;;
57055;SDS011;42945;51.718;5.324;2024-01-06T04:21:38;11.20;;;7.07;;
57055;SDS011;42945;51.718;5.324;2024-01-06T04:27:26;7.45;;;3.72;;
57055;SDS011;42945;51.718;5.324;2024-01-06T04:33:15;6.88;;;4.20;;
57055;SDS011;42945;51.718;5.324;2024-01-06T04:39:03;4.35;;;3.25;;
57055;SDS011;42945;51.718;5.324;2024-01-06T04:44:52;4.90;;;3.00;;
57055;SDS011;42945;51.718;5.324;2024-01-06T04:50:40;2.58;;;2.03;;
57055;SDS011;42945;51.718;5.324;2024-01-06T04:56:28;5.05;;;3.45;;
57055;SDS011;42945;51.718;5.324;2024-01-06T05:02:16;9.05;;;5.38;;
57055;SDS011;42945;51.718;5.324;2024-01-06T05:08:03;9.43;;;6.05;;
57055;SDS011;42945;51.718;5.324;2024-01-06T05:13:51;10.50;;;6.75;;
57055;SDS011;42945;51.718;5.324;2024-01-06T05:19:39;14.65;;;7.03;;
57055;SDS011;42945;51.718;5.324;2024-01-06T05:25:27;12.32;;;6.70;;
57055;SDS011;42945;51.718;5.324;2024-01-06T05:31:14;6.70;;;4.40;;
57055;SDS011;42945;51.718;5.324;2024-01-06T05:37:02;7.30;;;4.53;;
57055;SDS011;42945;51.718;5.324;2024-01-06T05:42:50;7.45;;;5.70;;
57055;SDS011;42945;51.718;5.324;2024-01-06T05:48:40;11.45;;;7.28;;
57055;SDS011;42945;51.718;5.324;2024-01-06T05:54:29;11.93;;;7.38;;
57055;SDS011;42945;51.718;5.324;2024-01-06T06:00:16;8.63;;;5.95;;
57055;SDS011;42945;51.718;5.324;2024-01-06T06:09:52;9.15;;;4.55;;
57055;SDS011;42945;51.718;5.324;2024-01-06T06:15:40;13.80;;;7.15;;
57055;SDS011;42945;51.718;5.324;2024-01-06T06:21:28;15.32;;;9.18;;
57055;SDS011;42945;51.718;5.324;2024-01-06T06:27:16;15.55;;;9.77;;
57055;SDS011;42945;51.718;5.324;2024-01-06T06:33:04;21.23;;;10.77;;
57055;SDS011;42945;51.718;5.324;2024-01-06T06:38:52;15.57;;;9.95;;
57055;SDS011;42945;51.718;5.324;2024-01-06T06:44:41;18.13;;;9.88;;
57055;SDS011;42945;51.718;5.324;2024-01-06T06:50:29;14.73;;;9.13;;
57055;SDS011;42945;51.718;5.324;2024-01-06T06:56:17;16.70;;;9.55;;
57055;SDS011;42945;51.718;5.324;2024-01-06T07:02:05;16.63;;;9.82;;
57055;SDS011;42945;51.718;5.324;2024-01-06T07:11:29;16.90;;;10.20;;
57055;SDS011;42945;51.718;5.324;2024-01-06T07:17:17;17.33;;;9.68;;
57055;SDS011;42945;51.718;5.324;2024-01-06T07:23:04;18.08;;;10.13;;
57055;SDS011;42945;51.718;5.324;2024-01-06T07:28:52;21.55;;;11.93;;
57055;SDS011;42945;51.718;5.324;2024-01-06T07:34:40;18.67;;;10.35;;
57055;SDS011;42945;51.718;5.324;2024-01-06T07:40:31;21.95;;;12.38;;
57055;SDS011;42945;51.718;5.324;2024-01-06T07:46:18;22.52;;;12.68;;
57055;SDS011;42945;51.718;5.324;2024-01-06T07:52:07;20.38;;;11.38;;
57055;SDS011;42945;51.718;5.324;2024-01-06T07:57:55;24.60;;;13.55;;
57055;SDS011;42945;51.718;5.324;2024-01-06T08:03:45;21.38;;;11.15;;
57055;SDS011;42945;51.718;5.324;2024-01-06T08:13:21;19.42;;;10.93;;
57055;SDS011;42945;51.718;5.324;2024-01-06T08:19:10;19.70;;;11.23;;
57055;SDS011;42945;51.718;5.324;2024-01-06T08:24:57;21.25;;;11.13;;
57055;SDS011;42945;51.718;5.324;2024-01-06T08:30:45;19.55;;;10.73;;
57055;SDS011;42945;51.718;5.324;2024-01-06T08:36:34;26.92;;;10.90;;
57055;SDS011;42945;51.718;5.324;2024-01-06T08:42:23;18.48;;;11.32;;
57055;SDS011;42945;51.718;5.324;2024-01-06T08:48:13;16.15;;;10.57;;
57055;SDS011;42945;51.718;5.324;2024-01-06T08:54:02;16.70;;;10.43;;
57055;SDS011;42945;51.718;5.324;2024-01-06T08:59:53;16.92;;;9.05;;
57055;SDS011;42945;51.718;5.324;2024-01-06T09:05:41;20.30;;;9.82;;
57055;SDS011;42945;51.718;5.324;2024-01-06T09:11:29;12.93;;;9.27;;
57055;SDS011;42945;51.718;5.324;2024-01-06T09:17:17;12.60;;;8.65;;
57055;SDS011;42945;51.718;5.324;2024-01-06T09:23:04;14.13;;;8.38;;
57055;SDS011;42945;51.718;5.324;2024-01-06T09:28:53;14.65;;;9.68;;
57055;SDS011;42945;51.718;5.324;2024-01-06T09:34:41;12.15;;;8.43;;
57055;SDS011;42945;51.718;5.324;2024-01-06T09:40:31;15.60;;;10.02;;
57055;SDS011;42945;51.718;5.324;2024-01-06T09:46:26;13.77;;;8.27;;
57055;SDS011;42945;51.718;5.324;2024-01-06T09:52:21;14.85;;;9.65;;
57055;SDS011;42945;51.718;5.324;2024-01-06T09:58:10;17.80;;;9.43;;
57055;SDS011;42945;51.718;5.324;2024-01-06T10:03:57;14.38;;;7.75;;
57055;SDS011;42945;51.718;5.324;2024-01-06T10:09:45;12.52;;;7.95;;
57055;SDS011;42945;51.718;5.324;2024-01-06T10:15:39;11.85;;;7.90;;
57055;SDS011;42945;51.718;5.324;2024-01-06T10:21:26;16.65;;;9.00;;
57055;SDS011;42945;51.718;5.324;2024-01-06T10:27:15;14.48;;;8.23;;
57055;SDS011;42945;51.718;5.324;2024-01-06T10:33:13;13.10;;;8.00;;
57055;SDS011;42945;51.718;5.324;2024-01-06T10:39:02;13.60;;;7.72;;
57055;SDS011;42945;51.718;5.324;2024-01-06T10:44:51;13.68;;;8.13;;
57055;SDS011;42945;51.718;5.324;2024-01-06T10:50:39;14.15;;;8.07;;
57055;SDS011;42945;51.718;5.324;2024-01-06T10:56:27;14.55;;;8.60;;
57055;SDS011;42945;51.718;5.324;2024-01-06T11:02:18;10.60;;;6.60;;
57055;SDS011;42945;51.718;5.324;2024-01-06T11:08:06;12.75;;;6.85;;
57055;SDS011;42945;51.718;5.324;2024-01-06T11:17:52;11.13;;;6.35;;
57055;SDS011;42945;51.718;5.324;2024-01-06T11:23:42;10.32;;;5.97;;
57055;SDS011;42945;51.718;5.324;2024-01-06T11:29:31;7.88;;;5.45;;
57055;SDS011;42945;51.718;5.324;2024-01-06T11:35:19;10.13;;;5.28;;
57055;SDS011;42945;51.718;5.324;2024-01-06T11:41:13;10.60;;;6.40;;
57055;SDS011;42945;51.718;5.324;2024-01-06T11:47:38;10.13;;;6.40;;
57055;SDS011;42945;51.718;5.324;2024-01-06T11:53:28;9.95;;;6.40;;
57055;SDS011;42945;51.718;5.324;2024-01-06T11:59:17;11.60;;;6.63;;
57055;SDS011;42945;51.718;5.324;2024-01-06T12:05:05;12.23;;;7.30;;
57055;SDS011;42945;51.718;5.324;2024-01-06T12:11:07;12.65;;;6.85;;
57055;SDS011;42945;51.718;5.324;2024-01-06T12:20:57;9.82;;;6.28;;
57055;SDS011;42945;51.718;5.324;2024-01-06T12:26:45;10.05;;;5.60;;
57055;SDS011;42945;51.718;5.324;2024-01-06T12:32:34;9.68;;;5.93;;
57055;SDS011;42945;51.718;5.324;2024-01-06T12:38:23;7.30;;;5.40;;
57055;SDS011;42945;51.718;5.324;2024-01-06T12:44:20;10.07;;;6.20;;
57055;SDS011;42945;51.718;5.324;2024-01-06T12:50:08;9.05;;;5.38;;
57055;SDS011;42945;51.718;5.324;2024-01-06T12:55:56;10.02;;;6.00;;
57055;SDS011;42945;51.718;5.324;2024-01-06T13:01:43;10.13;;;6.25;;
57055;SDS011;42945;51.718;5.324;2024-01-06T13:07:32;11.82;;;6.80;;
57055;SDS011;42945;51.718;5.324;2024-01-06T13:13:20;13.32;;;6.45;;
57055;SDS011;42945;51.718;5.324;2024-01-06T13:23:03;13.93;;;6.78;;
57055;SDS011;42945;51.718;5.324;2024-01-06T13:28:53;13.63;;;7.25;;
57055;SDS011;42945;51.718;5.324;2024-01-06T13:34:41;14.27;;;7.43;;
57055;SDS011;42945;51.718;5.324;2024-01-06T13:40:29;15.52;;;6.90;;
57055;SDS011;42945;51.718;5.324;2024-01-06T13:46:18;14.20;;;7.15;;
57055;SDS011;42945;51.718;5.324;2024-01-06T13:52:06;11.48;;;7.05;;
57055;SDS011;42945;51.718;5.324;2024-01-06T13:57:56;11.63;;;8.13;;
57055;SDS011;42945;51.718;5.324;2024-01-06T14:03:44;15.27;;;9.15;;
57055;SDS011;42945;51.718;5.324;2024-01-06T14:09:32;18.02;;;9.20;;
57055;SDS011;42945;51.718;5.324;2024-01-06T14:15:21;16.08;;;9.23;;
57055;SDS011;42945;51.718;5.324;2024-01-06T14:25:04;18.40;;;9.70;;
57055;SDS011;42945;51.718;5.324;2024-01-06T14:30:54;17.08;;;9.35;;
57055;SDS011;42945;51.718;5.324;2024-01-06T14:36:42;18.85;;;10.80;;
57055;SDS011;42945;51.718;5.324;2024-01-06T14:42:34;23.02;;;13.48;;
57055;SDS011;42945;51.718;5.324;2024-01-06T14:48:23;23.67;;;13.68;;
57055;SDS011;42945;51.718;5.324;2024-01-06T14:54:11;17.08;;;9.63;;
57055;SDS011;42945;51.718;5.324;2024-01-06T14:59:59;23.80;;;12.75;;
57055;SDS011;42945;51.718;5.324;2024-01-06T15:05:47;22.80;;;13.07;;
57055;SDS011;42945;51.718;5.324;2024-01-06T15:11:34;24.02;;;12.48;;
57055;SDS011;42945;51.718;5.324;2024-01-06T15:17:24;19.98;;;11.98;;
57055;SDS011;42945;51.718;5.324;2024-01-06T15:27:06;24.08;;;12.50;;
57055;SDS011;42945;51.718;5.324;2024-01-06T15:32:54;24.10;;;12.73;;
57055;SDS011;42945;51.718;5.324;2024-01-06T15:38:42;21.38;;;10.70;;
57055;SDS011;42945;51.718;5.324;2024-01-06T15:44:30;21.55;;;12.07;;
57055;SDS011;42945;51.718;5.324;2024-01-06T15:50:20;20.88;;;11.48;;
57055;SDS011;42945;51.718;5.324;2024-01-06T15:56:07;19.95;;;10.77;;
57055;SDS011;42945;51.718;5.324;2024-01-06T16:01:55;16.92;;;11.00;;
57055;SDS011;42945;51.718;5.324;2024-01-06T16:07:43;20.55;;;12.20;;
57055;SDS011;42945;51.718;5.324;2024-01-06T16:13:31;20.88;;;10.32;;
57055;SDS011;42945;51.718;5.324;2024-01-06T16:19:19;18.35;;;10.77;;
57055;SDS011;42945;51.718;5.324;2024-01-06T16:28:43;15.20;;;10.00;;
57055;SDS011;42945;51.718;5.324;2024-01-06T16:34:33;14.80;;;8.82;;
57055;SDS011;42945;51.718;5.324;2024-01-06T16:40:21;18.00;;;10.13;;
57055;SDS011;42945;51.718;5.324;2024-01-06T16:46:10;16.63;;;9.40;;
57055;SDS011;42945;51.718;5.324;2024-01-06T16:51:59;15.52;;;8.80;;
57055;SDS011;42945;51.718;5.324;2024-01-06T16:57:47;15.07;;;8.05;;
57055;SDS011;42945;51.718;5.324;2024-01-06T17:03:35;15.35;;;8.80;;
57055;SDS011;42945;51.718;5.324;2024-01-06T17:09:23;14.60;;;9.00;;
57055;SDS011;42945;51.718;5.324;2024-01-06T17:15:13;10.35;;;7.60;;
57055;SDS011;42945;51.718;5.324;2024-01-06T17:21:02;11.65;;;7.60;;
57055;SDS011;42945;51.718;5.324;2024-01-06T17:30:41;10.50;;;7.18;;
57055;SDS011;42945;51.718;5.324;2024-01-06T17:36:30;12.65;;;7.35;;
57055;SDS011;42945;51.718;5.324;2024-01-06T17:42:17;12.15;;;7.40;;
57055;SDS011;42945;51.718;5.324;2024-01-06T17:48:09;12.07;;;8.15;;
57055;SDS011;42945;51.718;5.324;2024-01-06T17:53:58;10.98;;;8.13;;
57055;SDS011;42945;51.718;5.324;2024-01-06T17:59:45;12.68;;;9.50;;
57055;SDS011;42945;51.718;5.324;2024-01-06T18:05:34;13.48;;;9.93;;
57055;SDS011;42945;51.718;5.324;2024-01-06T18:11:22;13.73;;;9.40;;
57055;SDS011;42945;51.718;5.324;2024-01-06T18:17:09;11.95;;;7.93;;
57055;SDS011;42945;51.718;5.324;2024-01-06T18:22:58;13.05;;;8.80;;
57055;SDS011;42945;51.718;5.324;2024-01-06T18:32:43;14.45;;;9.55;;
57055;SDS011;42945;51.718;5.324;2024-01-06T18:38:32;15.38;;;10.82;;
57055;SDS011;42945;51.718;5.324;2024-01-06T18:44:21;16.42;;;10.95;;
57055;SDS011;42945;51.718;5.324;2024-01-06T18:50:09;15.45;;;11.55;;
57055;SDS011;42945;51.718;5.324;2024-01-06T18:55:57;16.58;;;11.18;;
57055;SDS011;42945;51.718;5.324;2024-01-06T19:01:45;15.60;;;11.15;;
57055;SDS011;42945;51.718;5.324;2024-01-06T19:07:33;18.45;;;12.38;;
57055;SDS011;42945;51.718;5.324;2024-01-06T19:13:20;18.55;;;12.50;;
57055;SDS011;42945;51.718;5.324;2024-01-06T19:19:09;18.10;;;12.50;;
57055;SDS011;42945;51.718;5.324;2024-01-06T19:24:58;19.33;;;11.73;;
57055;SDS011;42945;51.718;5.324;2024-01-06T19:34:39;20.65;;;13.07;;
57055;SDS011;42945;51.718;5.324;2024-01-06T19:40:28;19.88;;;12.98;;
57055;SDS011;42945;51.718;5.324;2024-01-06T19:46:17;20.17;;;14.18;;
57055;SDS011;42945;51.718;5.324;2024-01-06T19:52:05;21.17;;;15.02;;
57055;SDS011;42945;51.718;5.324;2024-01-06T19:57:53;22.58;;;15.23;;
57055;SDS011;42945;51.718;5.324;2024-01-06T20:03:40;22.20;;;15.32;;
57055;SDS011;42945;51.718;5.324;2024-01-06T20:09:28;22.90;;;14.98;;
57055;SDS011;42945;51.718;5.324;2024-01-06T20:15:19;22.95;;;16.00;;
57055;SDS011;42945;51.718;5.324;2024-01-06T20:21:09;25.35;;;17.10;;
57055;SDS011;42945;51.718;5.324;2024-01-06T20:27:00;25.85;;;17.63;;
57055;SDS011;42945;51.718;5.324;2024-01-06T20:36:45;24.45;;;16.90;;
57055;SDS011;42945;51.718;5.324;2024-01-06T20:42:33;27.73;;;18.40;;
57055;SDS011;42945;51.718;5.324;2024-01-06T20:48:21;26.80;;;18.10;;
57055;SDS011;42945;51.718;5.324;2024-01-06T20:54:10;27.00;;;17.73;;
57055;SDS011;42945;51.718;5.324;2024-01-06T20:59:58;28.80;;;18.58;;
57055;SDS011;42945;51.718;5.324;2024-01-06T21:05:47;27.55;;;17.25;;
57055;SDS011;42945;51.718;5.324;2024-01-06T21:11:35;28.38;;;18.77;;
57055;SDS011;42945;51.718;5.324;2024-01-06T21:17:23;27.05;;;17.45;;
57055;SDS011;42945;51.718;5.324;2024-01-06T21:23:11;24.75;;;15.93;;
57055;SDS011;42945;51.718;5.324;2024-01-06T21:28:59;24.73;;;16.42;;
57055;SDS011;42945;51.718;5.324;2024-01-06T21:38:42;25.75;;;16.98;;
57055;SDS011;42945;51.718;5.324;2024-01-06T21:44:31;28.67;;;17.63;;
57055;SDS011;42945;51.718;5.324;2024-01-06T21:50:19;27.65;;;17.00;;
57055;SDS011;42945;51.718;5.324;2024-01-06T21:56:06;27.60;;;18.00;;
57055;SDS011;42945;51.718;5.324;2024-01-06T22:01:54;29.00;;;17.90;;
57055;SDS011;42945;51.718;5.324;2024-01-06T22:07:42;30.15;;;17.98;;
57055;SDS011;42945;51.718;5.324;2024-01-06T22:13:30;28.30;;;17.63;;
57055;SDS011;42945;51.718;5.324;2024-01-06T22:19:18;25.15;;;16.27;;
57055;SDS011;42945;51.718;5.324;2024-01-06T22:25:06;29.75;;;19.30;;
57055;SDS011;42945;51.718;5.324;2024-01-06T22:30:55;32.80;;;19.95;;
57055;SDS011;42945;51.718;5.324;2024-01-06T22:36:42;30.38;;;19.92;;
57055;SDS011;42945;51.718;5.324;2024-01-06T22:42:30;30.77;;;19.50;;
57055;SDS011;42945;51.718;5.324;2024-01-06T22:48:18;29.98;;;18.48;;
57055;SDS011;42945;51.718;5.324;2024-01-06T22:54:06;26.83;;;17.25;;
57055;SDS011;42945;51.718;5.324;2024-01-06T22:59:55;30.38;;;18.90;;
57055;SDS011;42945;51.718;5.324;2024-01-06T23:05:44;27.23;;;16.48;;
57055;SDS011;42945;51.718;5.324;2024-01-06T23:11:35;27.42;;;17.38;;
57055;SDS011;42945;51.718;5.324;2024-01-06T23:17:24;29.15;;;17.95;;
57055;SDS011;42945;51.718;5.324;2024-01-06T23:23:18;30.92;;;18.23;;
57055;SDS011;42945;51.718;5.324;2024-01-06T23:29:06;32.83;;;19.42;;
57055;SDS011;42945;51.718;5.324;2024-01-06T23:34:54;31.60;;;19.05;;
57055;SDS011;42945;51.718;5.324;2024-01-06T23:40:42;34.28;;;19.85;;
57055;SDS011;42945;51.718;5.324;2024-01-06T23:46:36;30.55;;;19.50;;
57055;SDS011;42945;51.718;5.324;2024-01-06T23:52:25;31.85;;;17.38;;
57055;SDS011;42945;51.718;5.324;2024-01-06T23:58:14;32.28;;;20.25;;
